Time;durP1;ratioP1;P1;durP2;ratioP2;P2;SDS_P1;SDS_P2;PMS_P1;PMS_P2;Temp;Humidity;BMP_temperature;BMP_pressure;BME280_temperature;BME280_humidity;BME280_pressure;Samples;Min_cycle;Max_cycle;Signal;HPM_P1;HPM_P2
2022/08/30 00:01:05;;;;;;;8.40;2.60;;;19.20;86.30;;;;;;5036059;28;20025;-48
2022/08/30 00:03:44;;;;;;;6.72;3.15;;;19.10;86.50;;;;;;5053621;28;20118;-54
2022/08/30 00:06:13;;;;;;;5.93;2.50;;;19.10;86.50;;;;;;5053899;28;20033;-48
2022/08/30 00:08:40;;;;;;;7.88;2.35;;;19.00;86.70;;;;;;5053846;28;20096;-49
2022/08/30 00:11:08;;;;;;;9.00;2.60;;;19.00;87.10;;;;;;5053848;28;20025;-51
2022/08/30 00:13:35;;;;;;;10.32;2.60;;;19.00;87.00;;;;;;5053414;28;20033;-51
2022/08/30 00:16:01;;;;;;;6.30;2.50;;;18.90;87.10;;;;;;5035747;28;20079;-50
2022/08/30 00:18:27;;;;;;;4.05;2.35;;;18.90;87.50;;;;;;5053649;28;20097;-52
2022/08/30 00:20:54;;;;;;;4.72;2.92;;;18.90;87.40;;;;;;5053629;28;20028;-51
2022/08/30 00:23:20;;;;;;;6.72;2.55;;;18.90;87.70;;;;;;5053310;28;20025;-49
2022/08/30 00:25:46;;;;;;;4.40;3.08;;;18.80;87.90;;;;;;5053241;28;20091;-50
2022/08/30 00:28:12;;;;;;;9.32;2.50;;;18.80;88.00;;;;;;5053388;28;20437;-52
2022/08/30 00:30:38;;;;;;;6.15;2.38;;;18.80;88.00;;;;;;5053429;28;20025;-50
2022/08/30 00:33:04;;;;;;;8.18;2.65;;;18.70;87.80;;;;;;5053148;28;20586;-47
2022/08/30 00:35:30;;;;;;;8.13;3.00;;;18.70;88.10;;;;;;5053255;28;20116;-48
2022/08/30 00:37:55;;;;;;;6.75;2.67;;;18.70;88.30;;;;;;5052995;28;20040;-49
2022/08/30 00:40:22;;;;;;;7.68;2.80;;;18.60;88.40;;;;;;5053120;28;20095;-47
2022/08/30 00:42:47;;;;;;;5.00;2.10;;;18.60;88.30;;;;;;5052911;28;20060;-50
2022/08/30 00:45:23;;;;;;;7.60;2.95;;;18.60;88.30;;;;;;5052870;28;20057;-50
2022/08/30 00:47:49;;;;;;;;;;;18.60;88.50;;;;;;5053649;28;20033;-50
2022/08/30 00:50:19;;;;;;;6.15;2.58;;;18.60;88.70;;;;;;5052804;28;19908;-48
2022/08/30 00:52:48;;;;;;;4.75;2.45;;;18.60;88.70;;;;;;5052868;28;20021;-49
2022/08/30 00:55:15;;;;;;;8.18;3.75;;;18.60;88.80;;;;;;5053176;28;20362;-49
2022/08/30 00:57:44;;;;;;;4.40;2.63;;;18.50;89.00;;;;;;5052946;28;20040;-50
2022/08/30 01:00:11;;;;;;;9.00;3.75;;;18.50;89.20;;;;;;5052858;28;20025;-49
2022/08/30 01:02:37;;;;;;;4.43;2.78;;;18.40;89.40;;;;;;5052395;28;20028;-47
2022/08/30 01:05:05;;;;;;;5.85;2.28;;;18.40;89.60;;;;;;5052705;28;20028;-45
2022/08/30 01:07:32;;;;;;;9.73;2.63;;;18.40;89.60;;;;;;5052852;28;20021;-46
2022/08/30 01:09:57;;;;;;;4.50;2.53;;;18.30;89.90;;;;;;5052613;28;20025;-49
2022/08/30 01:12:23;;;;;;;6.25;2.47;;;18.30;90.00;;;;;;5052578;28;20506;-47
2022/08/30 01:14:49;;;;;;;9.30;2.97;;;18.30;90.10;;;;;;5052689;28;20431;-50
2022/08/30 01:17:16;;;;;;;2.58;2.00;;;18.20;90.10;;;;;;5051684;28;20583;-48
2022/08/30 01:19:51;;;;;;;4.80;2.60;;;18.20;90.20;;;;;;5034805;28;20037;-49
2022/08/30 01:22:24;;;;;;;4.45;2.58;;;18.20;90.30;;;;;;5053257;28;20044;-52
2022/08/30 01:24:51;;;;;;;8.27;2.40;;;18.20;90.40;;;;;;5052258;28;20037;-48
2022/08/30 01:27:17;;;;;;;6.13;3.53;;;18.10;90.40;;;;;;5053050;28;20025;-50
2022/08/30 01:29:43;;;;;;;10.68;2.65;;;18.10;90.40;;;;;;5052529;28;20078;-51
2022/08/30 01:32:19;;;;;;;3.55;2.47;;;18.00;90.40;;;;;;5050814;28;20063;-48
2022/08/30 01:34:47;;;;;;;9.43;2.33;;;18.00;90.50;;;;;;5052472;28;20128;-47
2022/08/30 01:37:22;;;;;;;12.25;2.90;;;18.00;90.50;;;;;;5050439;28;20025;-53
2022/08/30 01:39:48;;;;;;;5.07;2.33;;;18.00;90.50;;;;;;5052017;28;20024;-48
2022/08/30 01:42:16;;;;;;;6.55;2.50;;;17.90;90.50;;;;;;5052083;28;20041;-51
2022/08/30 01:44:43;;;;;;;5.47;2.13;;;17.90;90.70;;;;;;5052004;28;20021;-44
2022/08/30 01:47:09;;;;;;;6.57;2.95;;;17.90;90.80;;;;;;5051938;28;20095;-48
2022/08/30 01:49:34;;;;;;;7.82;2.40;;;17.90;90.80;;;;;;5033962;28;20029;-48
2022/08/30 01:55:22;;;;;;;5.90;2.30;;;17.80;90.90;;;;;;5049968;28;20040;-46
2022/08/30 01:57:48;;;;;;;7.47;2.47;;;17.80;90.90;;;;;;5052029;28;20029;-48
2022/08/30 02:00:15;;;;;;;3.28;2.30;;;17.80;91.00;;;;;;5051743;28;20514;-49
2022/08/30 02:02:41;;;;;;;4.15;2.17;;;17.80;91.00;;;;;;5051397;28;20109;-52
2022/08/30 02:05:07;;;;;;;10.77;2.50;;;17.70;91.10;;;;;;5051527;28;20108;-48
2022/08/30 02:07:32;;;;;;;7.35;2.65;;;17.70;91.10;;;;;;5051782;28;20075;-46
2022/08/30 02:09:58;;;;;;;6.40;2.80;;;17.70;91.20;;;;;;5051507;28;20021;-49
2022/08/30 02:12:24;;;;;;;6.13;2.85;;;17.70;91.30;;;;;;5051330;28;20369;-49
2022/08/30 02:14:50;;;;;;;4.68;2.72;;;17.60;91.30;;;;;;5050934;28;20470;-48
2022/08/30 02:17:18;;;;;;;5.25;2.20;;;17.60;91.40;;;;;;5051589;28;20009;-48
2022/08/30 02:19:44;;;;;;;5.43;3.10;;;17.60;91.50;;;;;;5051705;28;20017;-48
2022/08/30 02:22:10;;;;;;;5.78;2.22;;;17.60;91.60;;;;;;5051205;28;20063;-48
2022/08/30 02:24:36;;;;;;;6.97;2.90;;;17.50;91.70;;;;;;5051368;28;20029;-50
2022/08/30 02:27:02;;;;;;;4.03;2.75;;;17.50;91.80;;;;;;5051437;28;20495;-51
2022/08/30 02:29:27;;;;;;;4.22;2.33;;;17.40;91.80;;;;;;5050113;28;20024;-50
2022/08/30 02:31:53;;;;;;;5.97;2.70;;;17.30;92.10;;;;;;5050283;28;20289;-52
2022/08/30 02:34:20;;;;;;;8.63;2.97;;;17.40;92.00;;;;;;5051631;28;20107;-50
2022/08/30 02:36:45;;;;;;;3.83;2.53;;;17.30;92.30;;;;;;5050850;28;20017;-51
2022/08/30 02:39:12;;;;;;;4.57;2.85;;;17.30;92.30;;;;;;5051602;28;20021;-50
2022/08/30 02:41:39;;;;;;;6.03;3.33;;;17.30;92.20;;;;;;5051441;28;20124;-51
2022/08/30 02:44:05;;;;;;;6.85;2.95;;;17.30;92.40;;;;;;5050997;28;20550;-52
2022/08/30 02:46:31;;;;;;;8.43;2.70;;;17.30;92.40;;;;;;5051084;28;20029;-51
2022/08/30 02:48:57;;;;;;;19.05;4.43;;;17.20;92.40;;;;;;5051530;28;20461;-45
2022/08/30 02:51:22;;;;;;;4.20;2.70;;;17.20;92.50;;;;;;5051203;28;20021;-51
2022/08/30 02:53:48;;;;;;;7.40;2.80;;;17.20;92.70;;;;;;5050023;28;20101;-56
2022/08/30 02:56:14;;;;;;;5.57;2.72;;;17.20;92.70;;;;;;5050267;28;20033;-47
2022/08/30 02:58:42;;;;;;;11.60;3.97;;;17.20;92.80;;;;;;5051263;28;20032;-54
2022/08/30 03:01:12;;;;;;;9.35;3.42;;;17.20;92.90;;;;;;5051460;28;20025;-52
2022/08/30 03:03:38;;;;;;;10.18;3.58;;;17.20;93.00;;;;;;5050931;28;20025;-53
2022/08/30 03:06:03;;;;;;;8.68;3.08;;;17.10;93.10;;;;;;5051025;28;20052;-47
2022/08/30 03:08:30;;;;;;;5.15;2.85;;;17.00;93.60;;;;;;5051155;28;20029;-49
2022/08/30 03:10:56;;;;;;;12.40;5.38;;;17.00;93.50;;;;;;5033348;28;20025;-49
2022/08/30 03:13:23;;;;;;;7.43;2.72;;;16.90;93.50;;;;;;5050776;28;20476;-53
2022/08/30 03:15:49;;;;;;;4.15;3.35;;;16.90;93.60;;;;;;5051125;28;20039;-47
2022/08/30 03:18:16;;;;;;;11.80;3.53;;;16.90;93.70;;;;;;5051070;28;20408;-47
2022/08/30 03:20:42;;;;;;;6.22;3.03;;;16.80;93.80;;;;;;5051170;28;20491;-48
2022/08/30 03:23:07;;;;;;;6.88;2.65;;;16.80;94.00;;;;;;5050914;28;20033;-48
2022/08/30 03:25:33;;;;;;;5.07;3.05;;;16.90;94.10;;;;;;5052238;28;20029;-52
2022/08/30 03:27:59;;;;;;;5.95;3.15;;;16.80;94.20;;;;;;5054784;28;20515;-47
2022/08/30 03:30:25;;;;;;;7.38;2.78;;;16.80;94.30;;;;;;5054873;28;20025;-51
2022/08/30 03:32:50;;;;;;;8.75;3.13;;;16.80;94.40;;;;;;5054469;28;20033;-49
2022/08/30 03:35:17;;;;;;;4.00;3.03;;;16.70;94.30;;;;;;5053414;28;20304;-50
2022/08/30 03:37:44;;;;;;;5.15;3.17;;;16.70;94.50;;;;;;5054021;28;20432;-49
2022/08/30 03:40:11;;;;;;;12.68;3.25;;;16.70;94.60;;;;;;5054999;28;20079;-49
2022/08/30 03:42:37;;;;;;;4.28;2.60;;;16.80;94.60;;;;;;5054491;28;20028;-49
2022/08/30 03:45:04;;;;;;;5.05;2.67;;;16.80;94.60;;;;;;5054162;28;20100;-48
2022/08/30 03:47:30;;;;;;;4.03;2.80;;;16.70;94.70;;;;;;5091971;22;20075;-44
2022/08/30 03:49:56;;;;;;;9.20;2.53;;;16.70;94.80;;;;;;5074745;28;20053;-49
2022/08/30 03:52:22;;;;;;;6.57;3.00;;;16.70;95.00;;;;;;5073864;28;20388;-48
2022/08/30 03:54:47;;;;;;;8.88;2.83;;;16.70;95.10;;;;;;5074172;28;20095;-45
2022/08/30 03:57:14;;;;;;;6.07;3.63;;;16.70;95.10;;;;;;5073968;28;20028;-48
2022/08/30 03:59:39;;;;;;;3.08;2.40;;;16.70;95.30;;;;;;5074018;28;20411;-44
2022/08/30 04:02:05;;;;;;;5.53;2.95;;;16.70;95.30;;;;;;5073730;28;20020;-46
2022/08/30 04:04:31;;;;;;;7.32;2.53;;;16.70;95.40;;;;;;5073922;28;20056;-47
2022/08/30 04:06:57;;;;;;;5.63;3.35;;;16.70;95.50;;;;;;5074287;28;20031;-42
2022/08/30 04:09:22;;;;;;;7.95;2.70;;;16.70;95.50;;;;;;5074101;28;20489;-46
2022/08/30 04:11:48;;;;;;;5.05;3.05;;;16.70;95.70;;;;;;5073789;28;20043;-45
2022/08/30 04:14:14;;;;;;;11.18;3.17;;;16.60;95.70;;;;;;5073633;28;20020;-47
2022/08/30 04:16:39;;;;;;;4.85;2.90;;;16.60;95.80;;;;;;5055822;28;20024;-44
2022/08/30 04:19:05;;;;;;;6.05;2.78;;;16.60;95.90;;;;;;5073908;28;20032;-47
2022/08/30 04:21:31;;;;;;;7.82;2.35;;;16.60;96.00;;;;;;5073560;28;20035;-49
2022/08/30 04:23:56;;;;;;;11.00;2.80;;;16.50;96.20;;;;;;5073335;28;20128;-45
2022/08/30 04:26:22;;;;;;;6.20;2.70;;;16.50;96.30;;;;;;5073256;28;20024;-46
2022/08/30 04:28:47;;;;;;;9.88;2.83;;;16.50;96.40;;;;;;5073814;28;20024;-43
2022/08/30 04:31:15;;;;;;;6.22;2.92;;;16.50;96.50;;;;;;5073625;28;20067;-46
2022/08/30 04:33:42;;;;;;;5.68;3.08;;;16.50;96.60;;;;;;5073096;28;20021;-46
2022/08/30 04:36:08;;;;;;;7.22;2.92;;;16.40;96.80;;;;;;5072089;28;20070;-42
2022/08/30 04:38:36;;;;;;;5.10;3.00;;;16.40;96.90;;;;;;5073199;28;20032;-41
2022/08/30 04:41:02;;;;;;;4.38;2.75;;;16.40;96.90;;;;;;5073198;28;20515;-46
2022/08/30 04:43:27;;;;;;;7.45;2.92;;;16.40;96.90;;;;;;5072913;28;20050;-41
2022/08/30 04:45:55;;;;;;;6.50;2.60;;;16.40;97.00;;;;;;5073094;28;20115;-44
2022/08/30 04:48:21;;;;;;;5.40;2.60;;;16.40;96.90;;;;;;5055346;28;20029;-44
2022/08/30 04:50:47;;;;;;;4.10;2.53;;;16.50;96.90;;;;;;5073385;28;20114;-41
2022/08/30 04:53:14;;;;;;;6.97;3.60;;;16.40;96.90;;;;;;5055113;28;20031;-45
2022/08/30 04:55:42;;;;;;;4.90;2.60;;;16.40;97.00;;;;;;5072796;28;20078;-44
2022/08/30 04:58:08;;;;;;;11.73;3.83;;;16.40;96.90;;;;;;5073125;28;20024;-41
2022/08/30 05:00:36;;;;;;;6.38;2.47;;;16.50;97.00;;;;;;5073264;28;20492;-47
2022/08/30 05:03:02;;;;;;;6.18;2.88;;;16.40;97.00;;;;;;5072696;28;20447;-46
2022/08/30 05:05:40;;;;;;;4.10;2.53;;;16.50;97.10;;;;;;5073453;28;20052;-44
2022/08/30 05:08:10;;;;;;;4.05;2.22;;;16.60;96.90;;;;;;5073453;28;20103;-47
2022/08/30 05:10:44;;;;;;;7.28;2.67;;;16.70;96.80;;;;;;5072954;28;20063;-43
2022/08/30 05:13:10;;;;;;;3.53;2.53;;;16.90;96.50;;;;;;5072331;28;20395;-44
2022/08/30 05:15:37;;;;;;;4.63;2.55;;;17.30;95.90;;;;;;5066625;28;20032;-43
2022/08/30 05:18:03;;;;;;;7.22;3.40;;;17.70;95.30;;;;;;5055705;28;20021;-45
2022/08/30 05:20:29;;;;;;;7.38;2.33;;;18.00;94.60;;;;;;5070722;28;20503;-46
2022/08/30 05:22:54;;;;;;;10.73;2.75;;;18.30;94.20;;;;;;5072039;28;20107;-43
2022/08/30 05:25:22;;;;;;;6.82;2.65;;;18.40;93.80;;;;;;5072486;28;20028;-47
2022/08/30 05:27:48;;;;;;;4.72;2.28;;;18.40;93.90;;;;;;5054534;28;20028;-44
2022/08/30 05:30:15;;;;;;;5.75;2.53;;;18.40;94.00;;;;;;5071702;28;20040;-44
2022/08/30 05:32:41;;;;;;;3.60;2.40;;;18.30;94.00;;;;;;5071645;28;20032;-46
2022/08/30 05:35:09;;;;;;;3.88;2.80;;;18.40;94.10;;;;;;5072083;28;20028;-44
2022/08/30 05:37:35;;;;;;;4.30;2.38;;;18.30;94.30;;;;;;5071969;28;20024;-45
2022/08/30 05:40:01;;;;;;;5.07;2.20;;;18.40;94.30;;;;;;5072263;28;20125;-49
2022/08/30 05:42:27;;;;;;;5.95;2.60;;;18.30;94.20;;;;;;5071556;28;20029;-48
2022/08/30 05:44:53;;;;;;;9.13;3.13;;;18.40;94.20;;;;;;5071941;28;20035;-49
2022/08/30 05:47:19;;;;;;;5.65;2.72;;;18.50;94.10;;;;;;5071332;28;20048;-46
2022/08/30 05:49:45;;;;;;;2.95;2.13;;;18.60;94.10;;;;;;5071314;28;20039;-43
2022/08/30 05:52:14;;;;;;;10.20;3.60;;;18.60;93.90;;;;;;5071511;28;20021;-43
2022/08/30 05:54:40;;;;;;;3.90;2.53;;;18.70;93.90;;;;;;5071739;28;20066;-48
2022/08/30 05:57:06;;;;;;;7.65;2.60;;;18.80;93.90;;;;;;5071801;28;20442;-44
2022/08/30 05:59:32;;;;;;;6.07;2.50;;;18.90;93.70;;;;;;5072088;28;20025;-46
2022/08/30 06:01:57;;;;;;;5.63;2.53;;;19.10;93.50;;;;;;5071853;28;20066;-41
2022/08/30 06:04:23;;;;;;;8.52;2.60;;;19.40;93.10;;;;;;5071950;28;20028;-46
2022/08/30 06:06:49;;;;;;;9.10;2.65;;;19.70;92.40;;;;;;5071897;28;20024;-46
2022/08/30 06:09:15;;;;;;;5.60;2.30;;;19.90;92.30;;;;;;5071571;28;20127;-45
2022/08/30 06:11:41;;;;;;;6.22;1.90;;;20.30;91.80;;;;;;5071958;28;20035;-43
2022/08/30 06:14:07;;;;;;;8.85;2.50;;;20.90;90.90;;;;;;5071139;28;20025;-45
2022/08/30 06:16:37;;;;;;;6.30;2.88;;;21.50;90.10;;;;;;5071601;28;20035;-48
2022/08/30 06:19:03;;;;;;;7.47;2.95;;;21.90;88.40;;;;;;5071407;28;20024;-42
2022/08/30 06:21:33;;;;;;;7.07;3.45;;;21.90;88.40;;;;;;5072054;28;20395;-47
2022/08/30 06:23:59;;;;;;;5.25;2.40;;;21.90;88.20;;;;;;5071400;28;20028;-45
2022/08/30 06:26:27;;;;;;;3.28;2.30;;;22.10;87.80;;;;;;5071509;28;20484;-46
2022/08/30 06:28:53;;;;;;;3.60;2.33;;;22.40;86.70;;;;;;5071211;28;20073;-47
2022/08/30 06:31:21;;;;;;;5.72;2.38;;;22.50;86.10;;;;;;5038180;28;20060;-46
2022/08/30 06:33:48;;;;;;;4.65;2.42;;;22.80;85.50;;;;;;5070777;28;20028;-44
2022/08/30 06:36:18;;;;;;;4.93;2.67;;;23.30;83.70;;;;;;5070984;28;20112;-50
2022/08/30 06:38:44;;;;;;;5.60;2.40;;;23.50;83.60;;;;;;5051983;28;20017;-44
2022/08/30 06:41:17;;;;;;;5.22;2.40;;;23.80;82.80;;;;;;5070951;28;20411;-51
2022/08/30 06:43:43;;;;;;;4.80;2.40;;;23.60;82.20;;;;;;5071046;28;20472;-43
2022/08/30 06:46:11;;;;;;;4.25;2.40;;;23.20;83.20;;;;;;5070363;28;20044;-48
2022/08/30 06:48:37;;;;;;;7.57;2.30;;;23.20;83.70;;;;;;5070072;28;20036;-45
2022/08/30 06:51:03;;;;;;;5.55;2.67;;;23.40;82.90;;;;;;5070791;28;20107;-45
2022/08/30 06:53:29;;;;;;;8.45;2.60;;;23.80;81.80;;;;;;5071173;28;20029;-45
2022/08/30 06:56:00;;;;;;;8.40;2.47;;;24.20;80.50;;;;;;5070630;28;20103;-43
2022/08/30 06:58:28;;;;;;;7.22;2.80;;;24.30;80.30;;;;;;5070485;28;20021;-45
2022/08/30 07:00:54;;;;;;;4.13;2.90;;;24.50;80.00;;;;;;5073947;28;20468;-48
2022/08/30 07:03:19;;;;;;;3.63;2.58;;;24.70;79.80;;;;;;5074760;28;20032;-46
2022/08/30 07:05:47;;;;;;;8.77;2.72;;;24.60;79.00;;;;;;5075256;28;20412;-48
2022/08/30 07:08:12;;;;;;;3.75;2.10;;;24.50;79.20;;;;;;5075415;28;20395;-44
2022/08/30 07:10:39;;;;;;;4.00;2.53;;;24.60;79.00;;;;;;5074824;28;20028;-47
2022/08/30 07:13:05;;;;;;;4.97;2.35;;;25.00;78.90;;;;;;5075206;28;20069;-44
2022/08/30 07:15:31;;;;;;;4.78;2.30;;;25.50;77.60;;;;;;5074908;28;20025;-46
2022/08/30 07:20:40;;;;;;;5.15;2.67;;;26.00;75.70;;;;;;5075040;28;20120;-47
2022/08/30 07:23:06;;;;;;;3.75;3.00;;;26.10;75.60;;;;;;5074628;28;20052;-44
2022/08/30 07:25:32;;;;;;;7.15;2.90;;;25.80;75.90;;;;;;5075114;28;20024;-47
2022/08/30 07:27:57;;;;;;;8.45;2.72;;;25.50;76.50;;;;;;5074797;28;20107;-44
2022/08/30 07:30:23;;;;;;;3.58;2.42;;;25.20;77.20;;;;;;5074971;28;20090;-45
2022/08/30 07:32:49;;;;;;;8.80;2.70;;;24.80;77.70;;;;;;5074675;28;20412;-47
2022/08/30 07:35:14;;;;;;;3.28;2.20;;;24.80;78.20;;;;;;5074701;28;20089;-46
2022/08/30 07:37:40;;;;;;;11.95;2.75;;;25.10;77.90;;;;;;5074260;28;20070;-48
2022/08/30 07:40:06;;;;;;;6.88;2.67;;;25.20;77.30;;;;;;5056799;28;20028;-41
2022/08/30 07:42:32;;;;;;;4.80;2.80;;;25.80;77.10;;;;;;5074779;28;20520;-46
2022/08/30 07:44:57;;;;;;;6.15;2.33;;;26.50;75.20;;;;;;5074851;28;20028;-48
2022/08/30 07:47:23;;;;;;;4.13;2.47;;;26.80;74.10;;;;;;5074547;28;20040;-50
2022/08/30 07:49:48;;;;;;;7.28;2.75;;;26.90;73.70;;;;;;5074845;28;20028;-44
2022/08/30 07:52:14;;;;;;;4.63;2.20;;;26.80;73.50;;;;;;5074067;28;20035;-43
2022/08/30 07:54:39;;;;;;;2.20;2.00;;;26.60;73.80;;;;;;5074570;28;20025;-49
2022/08/30 07:57:05;;;;;;;5.72;2.45;;;26.60;74.60;;;;;;5074092;28;20021;-46
2022/08/30 07:59:30;;;;;;;7.97;2.40;;;27.00;74.00;;;;;;5074209;28;20028;-44
2022/08/30 08:01:56;;;;;;;5.78;2.70;;;27.70;73.10;;;;;;5073699;28;20029;-41
2022/08/30 08:04:21;;;;;;;6.45;2.40;;;28.30;71.90;;;;;;5074216;28;20426;-46
2022/08/30 08:06:47;;;;;;;5.78;2.35;;;28.60;71.20;;;;;;5074086;28;20037;-45
2022/08/30 08:09:12;;;;;;;7.53;2.45;;;28.60;70.10;;;;;;5073478;28;20035;-47
2022/08/30 08:11:40;;;;;;;2.70;2.30;;;28.70;70.40;;;;;;5054589;28;20076;-51
2022/08/30 08:14:06;;;;;;;7.38;2.35;;;28.80;70.10;;;;;;5073787;28;20575;-44
2022/08/30 08:16:33;;;;;;;6.72;2.95;;;28.70;69.60;;;;;;5074030;28;20450;-47
2022/08/30 08:18:59;;;;;;;5.72;2.70;;;28.20;69.80;;;;;;5073833;28;20031;-48
2022/08/30 08:21:26;;;;;;;6.35;2.40;;;28.10;71.10;;;;;;5073472;28;20016;-42
2022/08/30 08:23:51;;;;;;;9.15;2.45;;;28.40;70.80;;;;;;5073514;28;20107;-45
2022/08/30 08:26:18;;;;;;;6.68;2.53;;;28.20;70.40;;;;;;5074180;28;20112;-44
2022/08/30 08:28:45;;;;;;;8.23;2.38;;;28.40;71.00;;;;;;5074220;28;20029;-52
2022/08/30 08:31:23;;;;;;;5.40;2.65;;;28.30;70.60;;;;;;5055740;28;20081;-53
2022/08/30 08:33:48;;;;;;;7.63;2.47;;;28.60;70.10;;;;;;5073629;28;20041;-51
2022/08/30 08:36:14;;;;;;;7.40;3.00;;;28.70;70.30;;;;;;5073129;28;20056;-48
2022/08/30 08:38:41;;;;;;;6.93;2.50;;;28.80;70.40;;;;;;5073732;28;20056;-50
2022/08/30 08:41:09;;;;;;;8.10;2.80;;;28.80;69.00;;;;;;5074035;28;20521;-44
2022/08/30 08:43:36;;;;;;;4.85;2.63;;;28.20;69.70;;;;;;5055434;28;20098;-49
2022/08/30 08:46:04;;;;;;;4.05;2.38;;;27.50;71.20;;;;;;5073340;28;20024;-48
2022/08/30 08:48:39;;;;;;;8.48;2.40;;;27.50;72.10;;;;;;5073744;28;20039;-51
2022/08/30 08:54:04;;;;;;;5.43;2.42;;;28.10;71.00;;;;;;5073236;28;20593;-50
2022/08/30 08:56:31;;;;;;;7.85;2.35;;;28.60;71.00;;;;;;5052829;28;20033;-47
2022/08/30 08:58:57;;;;;;;4.93;2.50;;;28.80;69.60;;;;;;5053141;28;20100;-48
2022/08/30 09:01:27;;;;;;;7.95;2.88;;;28.70;69.30;;;;;;5065506;28;20110;-54
2022/08/30 09:03:54;;;;;;;7.13;2.50;;;29.00;68.90;;;;;;5054505;28;20185;-53
2022/08/30 09:06:58;;;;;;;8.70;2.92;;;28.80;69.10;;;;;;5071647;28;20031;-46
2022/08/30 09:09:30;;;;;;;2.75;2.35;;;28.50;69.00;;;;;;5021712;28;20041;-51
2022/08/30 09:11:56;;;;;;;7.55;2.63;;;28.30;69.70;;;;;;5072736;28;20541;-47
2022/08/30 09:14:27;;;;;;;12.02;2.53;;;28.30;69.40;;;;;;5073427;28;20032;-50
2022/08/30 09:17:01;;;;;;;2.95;2.65;;;28.10;69.50;;;;;;5073067;28;20054;-46
2022/08/30 09:19:32;;;;;;;;;;;28.00;70.00;;;;;;5053267;28;20043;-47
2022/08/30 09:22:01;;;;;;;4.82;2.22;;;27.90;70.10;;;;;;5034857;28;19999;-52
2022/08/30 09:24:36;;;;;;;4.03;2.42;;;27.80;70.50;;;;;;5053427;28;20029;-47
2022/08/30 09:27:27;;;;;;;4.97;2.42;;;27.60;70.40;;;;;;5052601;28;20039;-48
2022/08/30 09:29:57;;;;;;;8.40;2.45;;;27.40;70.10;;;;;;5058540;28;20086;-46
2022/08/30 09:32:37;;;;;;;5.20;2.38;;;27.10;70.90;;;;;;5072381;28;20059;-47
2022/08/30 09:35:05;;;;;;;8.43;2.80;;;27.00;71.10;;;;;;5072616;28;20028;-53
2022/08/30 09:37:35;;;;;;;4.00;2.45;;;27.00;70.90;;;;;;5072598;28;20052;-51
2022/08/30 09:40:09;;;;;;;5.72;2.60;;;27.10;70.80;;;;;;5071922;28;20028;-48
2022/08/30 09:42:35;;;;;;;4.43;2.53;;;27.20;70.50;;;;;;5072392;28;20032;-46
2022/08/30 09:45:09;;;;;;;8.57;2.53;;;27.40;70.00;;;;;;5072199;28;20399;-47
2022/08/30 09:47:41;;;;;;;6.88;2.47;;;27.20;70.00;;;;;;5075492;22;20053;-54
2022/08/30 09:50:11;;;;;;;7.68;2.40;;;27.20;69.90;;;;;;5053606;28;20031;-52
2022/08/30 09:52:55;;;;;;;8.85;2.58;;;27.30;70.00;;;;;;5035838;28;20025;-51
2022/08/30 09:55:44;;;;;;;9.18;2.78;;;27.40;70.20;;;;;;5051725;28;20029;-54
2022/08/30 09:58:17;;;;;;;5.22;2.35;;;27.40;69.90;;;;;;5046126;28;20579;-53
2022/08/30 10:00:54;;;;;;;4.75;2.75;;;27.70;70.30;;;;;;5033058;28;20481;-49
2022/08/30 10:03:34;;;;;;;10.25;2.90;;;27.60;69.50;;;;;;5045093;28;20461;-53
2022/08/30 10:06:23;;;;;;;79.18;54.80;;;27.40;69.70;;;;;;5053866;28;20029;-54
2022/08/30 10:08:57;;;;;;;6.47;3.10;;;27.30;69.90;;;;;;5035995;28;20040;-53
2022/08/30 10:11:32;;;;;;;4.50;2.00;;;27.30;69.90;;;;;;5053684;28;20051;-56
2022/08/30 10:14:26;;;;;;;;;;;27.30;69.30;;;;;;5053893;28;20016;-54
2022/08/30 10:17:33;;;;;;;6.95;2.25;;;27.40;69.70;;;;;;5036065;28;19962;-53
2022/08/30 10:20:14;;;;;;;5.55;3.03;;;27.40;67.60;;;;;;5052329;28;20017;-51
2022/08/30 10:22:46;;;;;;;3.67;2.35;;;27.30;68.00;;;;;;5053575;28;20028;-53
2022/08/30 10:25:40;;;;;;;4.15;2.63;;;27.20;68.90;;;;;;5053366;28;20403;-52
2022/08/30 10:28:14;;;;;;;7.30;2.63;;;27.20;69.40;;;;;;5042508;28;20036;-51
2022/08/30 10:30:51;;;;;;;4.22;1.83;;;27.10;67.80;;;;;;5053446;28;20029;-52
2022/08/30 10:33:23;;;;;;;7.68;2.40;;;27.00;67.90;;;;;;5052758;28;20500;-52
2022/08/30 10:35:53;;;;;;;12.02;2.83;;;27.00;69.10;;;;;;5052708;28;20055;-54
2022/08/30 10:38:29;;;;;;;6.78;2.40;;;27.00;69.10;;;;;;5052989;28;20365;-55
2022/08/30 10:41:31;;;;;;;5.97;2.60;;;27.00;68.90;;;;;;5052360;28;20021;-54
2022/08/30 10:44:03;;;;;;;5.47;2.50;;;27.20;68.00;;;;;;5049662;28;20145;-50
2022/08/30 10:46:53;;;;;;;7.00;2.35;;;27.20;68.00;;;;;;5052702;28;20079;-54
2022/08/30 10:49:22;;;;;;;3.67;2.58;;;27.30;67.50;;;;;;5053111;28;20040;-55
2022/08/30 10:52:07;;;;;;;6.93;2.60;;;27.30;67.20;;;;;;5052743;28;20035;-56
2022/08/30 10:54:47;;;;;;;8.68;2.28;;;27.20;67.50;;;;;;5035118;28;20439;-54
2022/08/30 10:57:12;;;;;;;4.35;2.22;;;27.30;67.60;;;;;;5052696;28;20033;-54
2022/08/30 10:59:45;;;;;;;5.25;2.20;;;27.20;67.40;;;;;;5053639;28;20027;-53
2022/08/30 11:02:44;;;;;;;6.38;2.50;;;27.20;67.60;;;;;;5052757;28;20036;-52
2022/08/30 11:05:30;;;;;;;6.72;2.80;;;27.20;68.00;;;;;;5035837;28;20062;-54
2022/08/30 11:08:07;;;;;;;;;;;27.20;67.90;;;;;;5053674;28;20504;-54
2022/08/30 11:10:59;;;;;;;4.45;2.25;;;27.20;67.10;;;;;;5035717;28;19905;-54
2022/08/30 11:13:29;;;;;;;3.33;2.38;;;27.10;67.50;;;;;;5029105;28;20025;-48
2022/08/30 11:16:02;;;;;;;3.17;2.13;;;27.10;67.50;;;;;;5023909;28;20032;-57
2022/08/30 11:18:30;;;;;;;34.03;20.15;;;27.10;67.80;;;;;;5030501;28;20484;-57
2022/08/30 11:21:22;;;;;;;7.00;3.30;;;27.10;67.30;;;;;;5030833;28;20029;-57
2022/08/30 11:24:02;;;;;;;11.63;2.60;;;27.10;67.70;;;;;;5012847;28;20105;-59
2022/08/30 11:26:47;;;;;;;4.47;2.63;;;27.10;68.00;;;;;;5031985;28;20036;-59
2022/08/30 11:29:33;;;;;;;4.82;1.95;;;27.20;67.00;;;;;;5032017;28;20477;-56
2022/08/30 11:32:11;;;;;;;4.88;2.53;;;27.20;66.90;;;;;;5014267;28;20025;-56
2022/08/30 11:34:45;;;;;;;6.32;2.63;;;27.20;66.10;;;;;;5030543;28;20056;-60
2022/08/30 11:37:36;;;;;;;4.57;1.73;;;27.10;66.20;;;;;;5032766;28;20046;-48
2022/08/30 11:40:15;;;;;;;2.78;2.20;;;27.20;65.90;;;;;;5034926;28;20121;-55
2022/08/30 11:42:44;;;;;;;4.50;2.50;;;27.30;65.90;;;;;;5031274;28;20030;-52
2022/08/30 11:45:22;;;;;;;7.78;2.10;;;27.30;65.80;;;;;;5042264;28;20021;-51
2022/08/30 11:47:59;;;;;;;2.90;2.10;;;27.30;66.20;;;;;;5062233;28;20103;-55
2022/08/30 11:50:34;;;;;;;2.50;2.17;;;27.30;65.70;;;;;;5053781;28;20017;-54
2022/08/30 11:53:49;;;;;;;2.85;2.05;;;27.40;66.50;;;;;;5041192;28;20033;-51
2022/08/30 11:56:20;;;;;;;3.20;2.20;;;27.30;65.80;;;;;;4970178;28;20513;-55
2022/08/30 11:58:57;;;;;;;4.18;1.83;;;27.20;65.80;;;;;;4969108;28;20035;-50
2022/08/30 12:01:26;;;;;;;6.10;2.17;;;27.20;65.00;;;;;;5012072;28;20033;-57
2022/08/30 12:04:12;;;;;;;4.28;2.08;;;27.30;65.10;;;;;;5039926;28;20032;-54
2022/08/30 12:06:41;;;;;;;2.20;2.00;;;27.40;65.10;;;;;;5023866;28;20032;-48
2022/08/30 12:09:15;;;;;;;4.10;2.53;;;27.50;64.40;;;;;;5033575;28;20366;-53
2022/08/30 12:11:55;;;;;;;4.97;2.10;;;27.50;64.10;;;;;;5033848;28;20551;-53
2022/08/30 12:14:43;;;;;;;10.55;2.83;;;27.50;65.50;;;;;;5033957;28;20457;-58
2022/08/30 12:20:25;;;;;;;3.90;2.20;;;27.60;64.50;;;;;;5033132;28;20033;-58
2022/08/30 12:22:52;;;;;;;3.75;2.38;;;27.40;64.50;;;;;;5033484;28;20025;-49
2022/08/30 12:25:28;;;;;;;7.10;2.40;;;27.40;64.90;;;;;;5034083;28;20459;-44
2022/08/30 12:28:21;;;;;;;87.97;67.78;;;27.60;64.20;;;;;;5035778;28;20393;-45
2022/08/30 12:30:48;;;;;;;32.08;23.00;;;27.60;64.20;;;;;;5035547;28;20485;-44
2022/08/30 12:33:31;;;;;;;3.35;2.67;;;27.70;64.20;;;;;;5034690;28;20409;-49
2022/08/30 12:35:58;;;;;;;2.85;2.28;;;27.80;64.90;;;;;;5015690;28;20029;-46
2022/08/30 12:38:24;;;;;;;3.40;2.03;;;27.80;64.00;;;;;;5034327;28;20014;-48
2022/08/30 12:40:56;;;;;;;2.83;2.38;;;27.80;64.90;;;;;;5016638;28;20095;-44
2022/08/30 12:43:32;;;;;;;3.58;2.10;;;27.70;64.40;;;;;;5047175;28;20029;-43
2022/08/30 12:46:02;;;;;;;4.95;2.60;;;27.70;64.30;;;;;;5035201;28;20025;-44
2022/08/30 12:48:34;;;;;;;3.45;2.22;;;27.70;64.70;;;;;;5053272;28;20404;-47
2022/08/30 12:51:00;;;;;;;5.78;2.25;;;27.70;63.80;;;;;;5053451;28;20178;-46
2022/08/30 12:53:32;;;;;;;5.93;1.98;;;27.70;65.00;;;;;;5035034;28;20063;-44
2022/08/30 12:56:08;;;;;;;6.57;2.20;;;27.70;64.90;;;;;;5052919;28;20025;-44
2022/08/30 12:58:41;;;;;;;4.57;2.53;;;27.70;64.70;;;;;;5052059;28;20021;-46
2022/08/30 13:01:29;;;;;;;6.50;2.05;;;28.00;64.80;;;;;;5052641;28;20389;-45
2022/08/30 13:04:12;;;;;;;3.38;2.40;;;27.90;64.50;;;;;;5052779;28;20104;-42
2022/08/30 13:06:37;;;;;;;4.32;2.20;;;27.90;65.30;;;;;;5052621;28;20052;-49
2022/08/30 13:09:03;;;;;;;4.55;2.22;;;27.90;64.60;;;;;;5052959;28;20060;-44
2022/08/30 13:11:28;;;;;;;3.75;2.08;;;28.00;64.50;;;;;;5052881;28;20033;-47
2022/08/30 13:14:18;;;;;;;3.65;2.20;;;28.00;63.80;;;;;;5052732;28;20101;-46